sensor_id;sensor_type;location;lat;lon;timestamp;P1;durP1;ratioP1;P2;durP2;ratioP2
4049;SDS011;2039;50.894;6.888;2023-04-24T00:01:31;63.57;;;3.33;;
4049;SDS011;2039;50.894;6.888;2023-04-24T00:03:56;62.87;;;3.20;;
4049;SDS011;2039;50.894;6.888;2023-04-24T00:06:24;64.70;;;3.53;;
4049;SDS011;2039;50.894;6.888;2023-04-24T00:08:58;63.40;;;3.70;;
4049;SDS011;2039;50.894;6.888;2023-04-24T00:11:28;64.70;;;3.60;;
4049;SDS011;2039;50.894;6.888;2023-04-24T00:13:55;63.90;;;3.72;;
4049;SDS011;2039;50.894;6.888;2023-04-24T00:16:21;62.67;;;3.17;;
4049;SDS011;2039;50.894;6.888;2023-04-24T00:18:48;64.47;;;3.77;;
4049;SDS011;2039;50.894;6.888;2023-04-24T00:21:14;63.90;;;3.87;;
4049;SDS011;2039;50.894;6.888;2023-04-24T00:23:42;64.47;;;3.77;;
4049;SDS011;2039;50.894;6.888;2023-04-24T00:26:08;63.28;;;3.60;;
4049;SDS011;2039;50.894;6.888;2023-04-24T00:28:34;63.67;;;4.10;;
4049;SDS011;2039;50.894;6.888;2023-04-24T00:31:00;63.97;;;3.63;;
4049;SDS011;2039;50.894;6.888;2023-04-24T00:33:26;66.07;;;4.13;;
4049;SDS011;2039;50.894;6.888;2023-04-24T00:35:51;63.70;;;3.53;;
4049;SDS011;2039;50.894;6.888;2023-04-24T00:38:17;64.10;;;4.27;;
4049;SDS011;2039;50.894;6.888;2023-04-24T00:40:43;64.30;;;2.92;;
4049;SDS011;2039;50.894;6.888;2023-04-24T00:43:09;64.03;;;3.50;;
4049;SDS011;2039;50.894;6.888;2023-04-24T00:45:35;63.70;;;3.20;;
4049;SDS011;2039;50.894;6.888;2023-04-24T00:48:01;63.80;;;3.60;;
4049;SDS011;2039;50.894;6.888;2023-04-24T00:50:27;63.42;;;3.15;;
4049;SDS011;2039;50.894;6.888;2023-04-24T00:52:54;66.18;;;3.75;;
4049;SDS011;2039;50.894;6.888;2023-04-24T00:55:20;63.77;;;3.33;;
4049;SDS011;2039;50.894;6.888;2023-04-24T00:57:46;63.40;;;3.60;;
4049;SDS011;2039;50.894;6.888;2023-04-24T01:00:14;64.85;;;3.60;;
4049;SDS011;2039;50.894;6.888;2023-04-24T01:02:41;64.50;;;3.85;;
4049;SDS011;2039;50.894;6.888;2023-04-24T01:05:10;67.75;;;3.83;;
4049;SDS011;2039;50.894;6.888;2023-04-24T01:07:37;66.10;;;4.53;;
4049;SDS011;2039;50.894;6.888;2023-04-24T01:10:06;64.28;;;3.80;;
4049;SDS011;2039;50.894;6.888;2023-04-24T01:12:33;64.38;;;4.82;;
4049;SDS011;2039;50.894;6.888;2023-04-24T01:14:59;64.30;;;4.75;;
4049;SDS011;2039;50.894;6.888;2023-04-24T01:17:25;65.70;;;4.70;;
4049;SDS011;2039;50.894;6.888;2023-04-24T01:19:51;64.67;;;4.70;;
4049;SDS011;2039;50.894;6.888;2023-04-24T01:22:21;64.82;;;4.97;;
4049;SDS011;2039;50.894;6.888;2023-04-24T01:24:47;64.67;;;5.47;;
4049;SDS011;2039;50.894;6.888;2023-04-24T01:27:13;64.60;;;5.10;;
4049;SDS011;2039;50.894;6.888;2023-04-24T01:29:39;65.18;;;5.32;;
4049;SDS011;2039;50.894;6.888;2023-04-24T01:32:06;64.82;;;5.70;;
4049;SDS011;2039;50.894;6.888;2023-04-24T01:34:32;65.57;;;4.75;;
4049;SDS011;2039;50.894;6.888;2023-04-24T01:36:58;64.25;;;4.55;;
4049;SDS011;2039;50.894;6.888;2023-04-24T01:39:24;67.70;;;6.13;;
4049;SDS011;2039;50.894;6.888;2023-04-24T01:41:51;70.00;;;6.43;;
4049;SDS011;2039;50.894;6.888;2023-04-24T01:44:17;65.88;;;5.38;;
4049;SDS011;2039;50.894;6.888;2023-04-24T01:46:43;65.47;;;6.85;;
4049;SDS011;2039;50.894;6.888;2023-04-24T01:49:09;66.05;;;6.72;;
4049;SDS011;2039;50.894;6.888;2023-04-24T01:51:35;66.28;;;7.25;;
4049;SDS011;2039;50.894;6.888;2023-04-24T01:54:01;68.60;;;7.80;;
4049;SDS011;2039;50.894;6.888;2023-04-24T01:56:28;66.05;;;5.80;;
4049;SDS011;2039;50.894;6.888;2023-04-24T01:58:55;66.03;;;6.53;;
4049;SDS011;2039;50.894;6.888;2023-04-24T02:01:23;68.85;;;6.70;;
4049;SDS011;2039;50.894;6.888;2023-04-24T02:03:50;68.03;;;8.20;;
4049;SDS011;2039;50.894;6.888;2023-04-24T02:06:15;68.00;;;7.40;;
4049;SDS011;2039;50.894;6.888;2023-04-24T02:08:41;67.20;;;7.53;;
4049;SDS011;2039;50.894;6.888;2023-04-24T02:11:10;69.03;;;7.70;;
4049;SDS011;2039;50.894;6.888;2023-04-24T02:13:36;70.53;;;7.60;;
4049;SDS011;2039;50.894;6.888;2023-04-24T02:16:02;66.90;;;7.23;;
4049;SDS011;2039;50.894;6.888;2023-04-24T02:18:27;69.20;;;7.90;;
4049;SDS011;2039;50.894;6.888;2023-04-24T02:20:53;71.20;;;7.13;;
4049;SDS011;2039;50.894;6.888;2023-04-24T02:23:19;66.10;;;6.97;;
4049;SDS011;2039;50.894;6.888;2023-04-24T02:25:45;67.13;;;7.33;;
4049;SDS011;2039;50.894;6.888;2023-04-24T02:28:11;68.37;;;6.63;;
4049;SDS011;2039;50.894;6.888;2023-04-24T02:30:39;70.45;;;7.05;;
4049;SDS011;2039;50.894;6.888;2023-04-24T02:33:05;66.80;;;6.53;;
4049;SDS011;2039;50.894;6.888;2023-04-24T02:35:31;68.15;;;7.70;;
4049;SDS011;2039;50.894;6.888;2023-04-24T02:37:56;67.50;;;6.93;;
4049;SDS011;2039;50.894;6.888;2023-04-24T02:40:22;67.83;;;7.57;;
4049;SDS011;2039;50.894;6.888;2023-04-24T02:42:50;69.67;;;9.50;;
4049;SDS011;2039;50.894;6.888;2023-04-24T02:45:16;71.63;;;9.27;;
4049;SDS011;2039;50.894;6.888;2023-04-24T02:47:42;72.57;;;10.13;;
4049;SDS011;2039;50.894;6.888;2023-04-24T02:50:07;70.07;;;9.93;;
4049;SDS011;2039;50.894;6.888;2023-04-24T02:52:33;70.67;;;9.37;;
4049;SDS011;2039;50.894;6.888;2023-04-24T02:54:59;69.60;;;9.00;;
4049;SDS011;2039;50.894;6.888;2023-04-24T02:57:24;70.37;;;8.83;;
4049;SDS011;2039;50.894;6.888;2023-04-24T02:59:50;71.70;;;9.63;;
4049;SDS011;2039;50.894;6.888;2023-04-24T03:02:16;70.57;;;10.20;;
4049;SDS011;2039;50.894;6.888;2023-04-24T03:04:41;69.93;;;10.10;;
4049;SDS011;2039;50.894;6.888;2023-04-24T03:07:08;69.85;;;11.00;;
4049;SDS011;2039;50.894;6.888;2023-04-24T03:09:33;73.30;;;9.80;;
4049;SDS011;2039;50.894;6.888;2023-04-24T03:11:59;74.27;;;9.03;;
4049;SDS011;2039;50.894;6.888;2023-04-24T03:14:27;69.47;;;9.25;;
4049;SDS011;2039;50.894;6.888;2023-04-24T03:16:56;72.80;;;9.63;;
4049;SDS011;2039;50.894;6.888;2023-04-24T03:19:21;72.83;;;9.33;;
4049;SDS011;2039;50.894;6.888;2023-04-24T03:21:47;69.57;;;10.07;;
4049;SDS011;2039;50.894;6.888;2023-04-24T03:24:13;71.38;;;9.70;;
4049;SDS011;2039;50.894;6.888;2023-04-24T03:26:39;79.17;;;9.83;;
4049;SDS011;2039;50.894;6.888;2023-04-24T03:29:05;71.27;;;9.60;;
4049;SDS011;2039;50.894;6.888;2023-04-24T03:31:30;70.07;;;9.10;;
4049;SDS011;2039;50.894;6.888;2023-04-24T03:33:59;70.97;;;9.82;;
4049;SDS011;2039;50.894;6.888;2023-04-24T03:36:24;72.00;;;11.80;;
4049;SDS011;2039;50.894;6.888;2023-04-24T03:38:51;69.45;;;9.88;;
4049;SDS011;2039;50.894;6.888;2023-04-24T03:41:16;74.00;;;9.23;;
4049;SDS011;2039;50.894;6.888;2023-04-24T03:43:42;74.03;;;9.30;;
4049;SDS011;2039;50.894;6.888;2023-04-24T03:46:08;70.43;;;9.20;;
4049;SDS011;2039;50.894;6.888;2023-04-24T03:48:34;71.13;;;9.32;;
4049;SDS011;2039;50.894;6.888;2023-04-24T03:51:00;70.68;;;9.77;;
4049;SDS011;2039;50.894;6.888;2023-04-24T03:53:29;69.88;;;9.02;;
4049;SDS011;2039;50.894;6.888;2023-04-24T03:55:55;69.50;;;8.67;;
4049;SDS011;2039;50.894;6.888;2023-04-24T03:58:20;70.10;;;9.03;;
4049;SDS011;2039;50.894;6.888;2023-04-24T04:00:49;69.90;;;9.30;;
4049;SDS011;2039;50.894;6.888;2023-04-24T04:03:17;76.15;;;10.55;;
4049;SDS011;2039;50.894;6.888;2023-04-24T04:05:42;70.57;;;9.47;;
4049;SDS011;2039;50.894;6.888;2023-04-24T04:08:08;71.80;;;10.40;;
4049;SDS011;2039;50.894;6.888;2023-04-24T04:10:34;76.37;;;9.90;;
4049;SDS011;2039;50.894;6.888;2023-04-24T04:12:59;71.47;;;9.47;;
4049;SDS011;2039;50.894;6.888;2023-04-24T04:15:25;70.77;;;8.50;;
4049;SDS011;2039;50.894;6.888;2023-04-24T04:17:51;73.50;;;9.63;;
4049;SDS011;2039;50.894;6.888;2023-04-24T04:20:17;69.50;;;9.40;;
4049;SDS011;2039;50.894;6.888;2023-04-24T04:22:45;71.07;;;8.93;;
4049;SDS011;2039;50.894;6.888;2023-04-24T04:25:11;78.80;;;11.10;;
4049;SDS011;2039;50.894;6.888;2023-04-24T04:27:38;71.30;;;9.48;;
4049;SDS011;2039;50.894;6.888;2023-04-24T04:30:06;71.07;;;10.20;;
4049;SDS011;2039;50.894;6.888;2023-04-24T04:32:36;70.95;;;8.65;;
4049;SDS011;2039;50.894;6.888;2023-04-24T04:35:02;69.72;;;8.88;;
4049;SDS011;2039;50.894;6.888;2023-04-24T04:37:31;72.63;;;9.07;;
4049;SDS011;2039;50.894;6.888;2023-04-24T04:39:58;71.10;;;8.95;;
4049;SDS011;2039;50.894;6.888;2023-04-24T04:42:25;71.35;;;9.25;;
4049;SDS011;2039;50.894;6.888;2023-04-24T04:44:52;69.50;;;8.55;;
4049;SDS011;2039;50.894;6.888;2023-04-24T04:47:18;71.68;;;8.88;;
4049;SDS011;2039;50.894;6.888;2023-04-24T04:49:48;68.75;;;8.27;;
4049;SDS011;2039;50.894;6.888;2023-04-24T04:52:14;68.70;;;8.67;;
4049;SDS011;2039;50.894;6.888;2023-04-24T04:54:39;70.40;;;8.90;;
4049;SDS011;2039;50.894;6.888;2023-04-24T04:57:05;73.97;;;9.30;;
4049;SDS011;2039;50.894;6.888;2023-04-24T04:59:31;70.70;;;8.70;;
4049;SDS011;2039;50.894;6.888;2023-04-24T05:02:00;69.28;;;10.00;;
4049;SDS011;2039;50.894;6.888;2023-04-24T05:04:25;71.10;;;9.13;;
4049;SDS011;2039;50.894;6.888;2023-04-24T05:06:51;69.70;;;8.93;;
4049;SDS011;2039;50.894;6.888;2023-04-24T05:09:18;70.10;;;8.02;;
4049;SDS011;2039;50.894;6.888;2023-04-24T05:11:43;70.70;;;8.45;;
4049;SDS011;2039;50.894;6.888;2023-04-24T05:14:09;69.17;;;8.07;;
4049;SDS011;2039;50.894;6.888;2023-04-24T05:16:38;70.80;;;8.77;;
4049;SDS011;2039;50.894;6.888;2023-04-24T05:19:04;70.50;;;9.20;;
4049;SDS011;2039;50.894;6.888;2023-04-24T05:21:30;71.50;;;8.63;;
4049;SDS011;2039;50.894;6.888;2023-04-24T05:23:56;67.87;;;7.87;;
4049;SDS011;2039;50.894;6.888;2023-04-24T05:26:22;70.87;;;9.47;;
4049;SDS011;2039;50.894;6.888;2023-04-24T05:28:48;69.00;;;9.23;;
4049;SDS011;2039;50.894;6.888;2023-04-24T05:31:13;70.90;;;9.37;;
4049;SDS011;2039;50.894;6.888;2023-04-24T05:33:39;71.37;;;9.60;;
4049;SDS011;2039;50.894;6.888;2023-04-24T05:36:05;70.50;;;9.20;;
4049;SDS011;2039;50.894;6.888;2023-04-24T05:38:35;69.32;;;9.45;;
4049;SDS011;2039;50.894;6.888;2023-04-24T05:41:01;70.60;;;9.45;;
4049;SDS011;2039;50.894;6.888;2023-04-24T05:43:26;70.53;;;8.70;;
4049;SDS011;2039;50.894;6.888;2023-04-24T05:45:52;71.30;;;10.87;;
4049;SDS011;2039;50.894;6.888;2023-04-24T05:48:18;70.72;;;8.30;;
4049;SDS011;2039;50.894;6.888;2023-04-24T05:50:44;70.60;;;9.70;;
4049;SDS011;2039;50.894;6.888;2023-04-24T05:53:12;73.07;;;8.68;;
4049;SDS011;2039;50.894;6.888;2023-04-24T05:55:40;72.80;;;10.80;;
4049;SDS011;2039;50.894;6.888;2023-04-24T05:58:06;74.63;;;10.05;;
4049;SDS011;2039;50.894;6.888;2023-04-24T06:00:32;72.30;;;9.30;;
4049;SDS011;2039;50.894;6.888;2023-04-24T06:02:59;72.40;;;10.37;;
4049;SDS011;2039;50.894;6.888;2023-04-24T06:05:25;72.47;;;9.80;;
4049;SDS011;2039;50.894;6.888;2023-04-24T06:07:51;72.53;;;10.27;;
4049;SDS011;2039;50.894;6.888;2023-04-24T06:10:17;70.87;;;9.00;;
4049;SDS011;2039;50.894;6.888;2023-04-24T06:12:42;70.97;;;7.67;;
4049;SDS011;2039;50.894;6.888;2023-04-24T06:15:08;67.57;;;7.50;;
4049;SDS011;2039;50.894;6.888;2023-04-24T06:17:35;69.88;;;7.15;;
4049;SDS011;2039;50.894;6.888;2023-04-24T06:20:02;69.53;;;7.55;;
4049;SDS011;2039;50.894;6.888;2023-04-24T06:22:30;65.80;;;6.28;;
4049;SDS011;2039;50.894;6.888;2023-04-24T06:24:56;66.07;;;5.93;;
4049;SDS011;2039;50.894;6.888;2023-04-24T06:27:21;66.70;;;6.07;;
4049;SDS011;2039;50.894;6.888;2023-04-24T06:29:47;66.90;;;4.13;;
4049;SDS011;2039;50.894;6.888;2023-04-24T06:32:19;65.13;;;5.40;;
4049;SDS011;2039;50.894;6.888;2023-04-24T06:34:48;66.50;;;5.93;;
4049;SDS011;2039;50.894;6.888;2023-04-24T06:37:13;66.07;;;5.50;;
4049;SDS011;2039;50.894;6.888;2023-04-24T06:39:40;64.55;;;6.65;;
4049;SDS011;2039;50.894;6.888;2023-04-24T06:42:06;66.60;;;9.20;;
4049;SDS011;2039;50.894;6.888;2023-04-24T06:44:36;66.60;;;11.32;;
4049;SDS011;2039;50.894;6.888;2023-04-24T06:47:13;68.03;;;11.57;;
4049;SDS011;2039;50.894;6.888;2023-04-24T06:49:56;81.88;;;13.27;;
4049;SDS011;2039;50.894;6.888;2023-04-24T07:02:23;67.38;;;7.20;;
4049;SDS011;2039;50.894;6.888;2023-04-24T07:05:40;65.32;;;7.38;;
4049;SDS011;2039;50.894;6.888;2023-04-24T07:09:01;65.90;;;6.35;;
4049;SDS011;2039;50.894;6.888;2023-04-24T07:12:20;66.28;;;6.40;;
4049;SDS011;2039;50.894;6.888;2023-04-24T07:15:11;65.75;;;6.43;;
4049;SDS011;2039;50.894;6.888;2023-04-24T07:17:52;66.22;;;6.47;;
4049;SDS011;2039;50.894;6.888;2023-04-24T07:20:52;66.50;;;6.90;;
4049;SDS011;2039;50.894;6.888;2023-04-24T07:23:33;67.18;;;7.05;;
4049;SDS011;2039;50.894;6.888;2023-04-24T07:26:10;66.53;;;6.78;;
4049;SDS011;2039;50.894;6.888;2023-04-24T07:28:56;66.22;;;5.80;;
4049;SDS011;2039;50.894;6.888;2023-04-24T07:31:28;64.57;;;5.38;;
4049;SDS011;2039;50.894;6.888;2023-04-24T07:34:16;67.85;;;6.28;;
4049;SDS011;2039;50.894;6.888;2023-04-24T07:36:44;65.53;;;6.40;;
4049;SDS011;2039;50.894;6.888;2023-04-24T07:39:10;67.50;;;8.32;;
4049;SDS011;2039;50.894;6.888;2023-04-24T07:41:42;67.47;;;6.07;;
4049;SDS011;2039;50.894;6.888;2023-04-24T07:44:14;64.60;;;5.72;;
4049;SDS011;2039;50.894;6.888;2023-04-24T07:46:46;66.35;;;8.13;;
4049;SDS011;2039;50.894;6.888;2023-04-24T07:49:32;65.00;;;6.07;;
4049;SDS011;2039;50.894;6.888;2023-04-24T07:52:02;65.95;;;7.35;;
4049;SDS011;2039;50.894;6.888;2023-04-24T07:54:28;66.75;;;9.13;;
4049;SDS011;2039;50.894;6.888;2023-04-24T07:56:54;68.50;;;15.77;;
4049;SDS011;2039;50.894;6.888;2023-04-24T07:59:20;66.30;;;9.60;;
4049;SDS011;2039;50.894;6.888;2023-04-24T08:02:12;66.93;;;9.60;;
4049;SDS011;2039;50.894;6.888;2023-04-24T08:04:40;70.07;;;11.77;;
4049;SDS011;2039;50.894;6.888;2023-04-24T08:07:17;66.82;;;11.48;;
4049;SDS011;2039;50.894;6.888;2023-04-24T08:12:31;68.38;;;15.43;;
4049;SDS011;2039;50.894;6.888;2023-04-24T09:36:01;72.82;;;21.50;;
4049;SDS011;2039;50.894;6.888;2023-04-24T09:43:40;75.75;;;22.05;;
4049;SDS011;2039;50.894;6.888;2023-04-24T09:56:41;77.13;;;20.17;;
4049;SDS011;2039;50.894;6.888;2023-04-24T10:03:31;75.05;;;17.00;;
4049;SDS011;2039;50.894;6.888;2023-04-24T10:06:12;75.40;;;16.17;;
4049;SDS011;2039;50.894;6.888;2023-04-24T10:18:05;72.25;;;10.45;;
4049;SDS011;2039;50.894;6.888;2023-04-24T10:20:49;73.57;;;15.63;;
4049;SDS011;2039;50.894;6.888;2023-04-24T10:26:28;75.63;;;11.15;;
4049;SDS011;2039;50.894;6.888;2023-04-24T10:29:03;69.40;;;8.93;;
4049;SDS011;2039;50.894;6.888;2023-04-24T10:31:34;71.38;;;8.93;;
4049;SDS011;2039;50.894;6.888;2023-04-24T10:34:08;71.45;;;9.40;;
4049;SDS011;2039;50.894;6.888;2023-04-24T10:37:10;70.05;;;7.80;;
4049;SDS011;2039;50.894;6.888;2023-04-24T10:39:35;71.60;;;8.60;;
4049;SDS011;2039;50.894;6.888;2023-04-24T10:42:19;76.95;;;10.60;;
4049;SDS011;2039;50.894;6.888;2023-04-24T10:45:04;71.55;;;10.10;;
4049;SDS011;2039;50.894;6.888;2023-04-24T10:47:53;74.70;;;10.40;;
4049;SDS011;2039;50.894;6.888;2023-04-24T10:50:34;73.28;;;9.35;;
4049;SDS011;2039;50.894;6.888;2023-04-24T10:53:17;73.38;;;10.30;;
4049;SDS011;2039;50.894;6.888;2023-04-24T10:55:47;72.38;;;8.20;;
4049;SDS011;2039;50.894;6.888;2023-04-24T10:58:35;70.18;;;6.53;;
4049;SDS011;2039;50.894;6.888;2023-04-24T11:01:22;70.13;;;6.78;;
4049;SDS011;2039;50.894;6.888;2023-04-24T11:03:58;71.95;;;7.15;;
4049;SDS011;2039;50.894;6.888;2023-04-24T11:06:32;68.32;;;7.20;;
4049;SDS011;2039;50.894;6.888;2023-04-24T11:09:09;73.88;;;8.23;;
4049;SDS011;2039;50.894;6.888;2023-04-24T11:11:47;70.30;;;7.50;;
4049;SDS011;2039;50.894;6.888;2023-04-24T11:18:03;70.88;;;6.85;;
4049;SDS011;2039;50.894;6.888;2023-04-24T11:24:09;73.57;;;8.20;;
4049;SDS011;2039;50.894;6.888;2023-04-24T11:37:01;68.70;;;6.75;;
4049;SDS011;2039;50.894;6.888;2023-04-24T11:40:22;70.35;;;7.47;;
4049;SDS011;2039;50.894;6.888;2023-04-24T11:42:49;70.53;;;9.05;;
4049;SDS011;2039;50.894;6.888;2023-04-24T11:45:22;73.60;;;8.55;;
4049;SDS011;2039;50.894;6.888;2023-04-24T11:47:51;71.43;;;9.23;;
4049;SDS011;2039;50.894;6.888;2023-04-24T11:50:21;70.70;;;8.97;;
4049;SDS011;2039;50.894;6.888;2023-04-24T11:52:48;68.00;;;8.30;;
4049;SDS011;2039;50.894;6.888;2023-04-24T11:57:44;75.95;;;10.52;;
4049;SDS011;2039;50.894;6.888;2023-04-24T12:00:15;74.63;;;10.65;;
4049;SDS011;2039;50.894;6.888;2023-04-24T12:02:45;74.03;;;10.18;;
4049;SDS011;2039;50.894;6.888;2023-04-24T12:07:48;74.22;;;11.02;;
4049;SDS011;2039;50.894;6.888;2023-04-24T12:10:14;72.83;;;9.87;;
4049;SDS011;2039;50.894;6.888;2023-04-24T12:12:40;73.97;;;8.37;;
4049;SDS011;2039;50.894;6.888;2023-04-24T12:15:06;71.25;;;7.45;;
4049;SDS011;2039;50.894;6.888;2023-04-24T12:17:33;72.40;;;7.43;;
4049;SDS011;2039;50.894;6.888;2023-04-24T12:20:01;89.22;;;7.47;;
4049;SDS011;2039;50.894;6.888;2023-04-24T12:22:46;77.47;;;8.30;;
4049;SDS011;2039;50.894;6.888;2023-04-24T12:25:16;71.68;;;8.13;;
4049;SDS011;2039;50.894;6.888;2023-04-24T12:27:44;72.93;;;8.93;;
4049;SDS011;2039;50.894;6.888;2023-04-24T12:30:19;72.88;;;8.15;;
4049;SDS011;2039;50.894;6.888;2023-04-24T12:32:46;74.80;;;9.00;;
4049;SDS011;2039;50.894;6.888;2023-04-24T12:38:44;71.60;;;7.88;;
4049;SDS011;2039;50.894;6.888;2023-04-24T12:41:13;73.13;;;7.72;;
4049;SDS011;2039;50.894;6.888;2023-04-24T12:43:50;74.20;;;8.25;;
4049;SDS011;2039;50.894;6.888;2023-04-24T12:46:17;71.25;;;8.00;;
4049;SDS011;2039;50.894;6.888;2023-04-24T12:48:43;75.60;;;8.80;;
4049;SDS011;2039;50.894;6.888;2023-04-24T12:51:08;68.47;;;6.70;;
4049;SDS011;2039;50.894;6.888;2023-04-24T12:53:34;69.97;;;6.40;;
4049;SDS011;2039;50.894;6.888;2023-04-24T12:56:00;71.87;;;7.00;;
4049;SDS011;2039;50.894;6.888;2023-04-24T12:58:25;70.47;;;6.43;;
4049;SDS011;2039;50.894;6.888;2023-04-24T13:00:51;73.03;;;7.83;;
4049;SDS011;2039;50.894;6.888;2023-04-24T13:03:17;71.43;;;7.63;;
4049;SDS011;2039;50.894;6.888;2023-04-24T13:05:43;71.10;;;8.27;;
4049;SDS011;2039;50.894;6.888;2023-04-24T13:08:09;71.97;;;8.43;;
4049;SDS011;2039;50.894;6.888;2023-04-24T13:10:35;73.97;;;8.70;;
4049;SDS011;2039;50.894;6.888;2023-04-24T13:13:01;71.47;;;7.70;;
4049;SDS011;2039;50.894;6.888;2023-04-24T13:19:37;70.93;;;6.90;;
4049;SDS011;2039;50.894;6.888;2023-04-24T13:22:04;68.23;;;6.67;;
4049;SDS011;2039;50.894;6.888;2023-04-24T13:24:30;71.60;;;7.80;;
4049;SDS011;2039;50.894;6.888;2023-04-24T13:26:56;72.13;;;7.97;;
4049;SDS011;2039;50.894;6.888;2023-04-24T13:29:22;74.20;;;8.87;;
4049;SDS011;2039;50.894;6.888;2023-04-24T13:31:52;75.40;;;7.17;;
4049;SDS011;2039;50.894;6.888;2023-04-24T13:34:20;69.17;;;6.70;;
4049;SDS011;2039;50.894;6.888;2023-04-24T13:36:50;72.47;;;6.67;;
4049;SDS011;2039;50.894;6.888;2023-04-24T13:39:20;74.80;;;6.60;;
4049;SDS011;2039;50.894;6.888;2023-04-24T13:41:46;72.23;;;7.70;;
4049;SDS011;2039;50.894;6.888;2023-04-24T13:44:13;72.40;;;8.00;;
4049;SDS011;2039;50.894;6.888;2023-04-24T13:46:43;70.47;;;6.40;;
4049;SDS011;2039;50.894;6.888;2023-04-24T13:49:10;70.70;;;7.10;;
4049;SDS011;2039;50.894;6.888;2023-04-24T13:51:37;69.13;;;8.53;;
4049;SDS011;2039;50.894;6.888;2023-04-24T13:54:03;76.37;;;7.73;;
4049;SDS011;2039;50.894;6.888;2023-04-24T13:56:29;76.27;;;6.57;;
4049;SDS011;2039;50.894;6.888;2023-04-24T13:58:55;71.47;;;6.60;;
4049;SDS011;2039;50.894;6.888;2023-04-24T14:01:21;71.75;;;7.00;;
4049;SDS011;2039;50.894;6.888;2023-04-24T14:03:54;66.83;;;5.93;;
4049;SDS011;2039;50.894;6.888;2023-04-24T14:06:30;69.30;;;6.75;;
4049;SDS011;2039;50.894;6.888;2023-04-24T14:12:05;67.40;;;6.70;;
4049;SDS011;2039;50.894;6.888;2023-04-24T14:14:31;71.10;;;8.30;;
4049;SDS011;2039;50.894;6.888;2023-04-24T14:16:57;76.27;;;7.60;;
4049;SDS011;2039;50.894;6.888;2023-04-24T14:19:23;70.60;;;7.20;;
4049;SDS011;2039;50.894;6.888;2023-04-24T14:21:49;69.70;;;6.00;;
4049;SDS011;2039;50.894;6.888;2023-04-24T14:24:15;73.03;;;6.90;;
4049;SDS011;2039;50.894;6.888;2023-04-24T14:26:40;78.13;;;7.13;;
4049;SDS011;2039;50.894;6.888;2023-04-24T14:29:06;69.67;;;5.70;;
4049;SDS011;2039;50.894;6.888;2023-04-24T14:31:32;69.70;;;6.30;;
4049;SDS011;2039;50.894;6.888;2023-04-24T14:33:58;71.60;;;6.15;;
4049;SDS011;2039;50.894;6.888;2023-04-24T14:36:23;70.53;;;6.27;;
4049;SDS011;2039;50.894;6.888;2023-04-24T14:38:49;70.80;;;5.80;;
4049;SDS011;2039;50.894;6.888;2023-04-24T14:41:15;77.37;;;6.30;;
4049;SDS011;2039;50.894;6.888;2023-04-24T14:43:40;66.80;;;6.30;;
4049;SDS011;2039;50.894;6.888;2023-04-24T14:46:06;69.80;;;6.57;;
4049;SDS011;2039;50.894;6.888;2023-04-24T14:48:32;70.10;;;7.10;;
4049;SDS011;2039;50.894;6.888;2023-04-24T14:50:58;70.03;;;7.07;;
4049;SDS011;2039;50.894;6.888;2023-04-24T14:53:24;72.27;;;6.47;;
4049;SDS011;2039;50.894;6.888;2023-04-24T14:55:49;76.93;;;8.73;;
4049;SDS011;2039;50.894;6.888;2023-04-24T14:58:15;69.17;;;6.90;;
4049;SDS011;2039;50.894;6.888;2023-04-24T15:00:41;73.70;;;8.60;;
4049;SDS011;2039;50.894;6.888;2023-04-24T15:03:06;74.20;;;7.30;;
4049;SDS011;2039;50.894;6.888;2023-04-24T15:05:33;67.80;;;8.27;;
4049;SDS011;2039;50.894;6.888;2023-04-24T15:07:58;70.00;;;9.00;;
4049;SDS011;2039;50.894;6.888;2023-04-24T15:10:24;72.00;;;8.43;;
4049;SDS011;2039;50.894;6.888;2023-04-24T15:12:50;69.80;;;8.80;;
4049;SDS011;2039;50.894;6.888;2023-04-24T15:15:16;70.63;;;7.13;;
4049;SDS011;2039;50.894;6.888;2023-04-24T15:17:42;71.50;;;7.10;;
4049;SDS011;2039;50.894;6.888;2023-04-24T15:20:08;70.00;;;7.13;;
4049;SDS011;2039;50.894;6.888;2023-04-24T15:22:34;71.43;;;8.17;;
4049;SDS011;2039;50.894;6.888;2023-04-24T15:25:00;74.40;;;7.47;;
4049;SDS011;2039;50.894;6.888;2023-04-24T15:27:26;67.87;;;7.17;;
4049;SDS011;2039;50.894;6.888;2023-04-24T15:29:52;70.17;;;6.63;;
4049;SDS011;2039;50.894;6.888;2023-04-24T15:32:21;67.97;;;6.57;;
4049;SDS011;2039;50.894;6.888;2023-04-24T15:34:46;69.17;;;6.70;;
4049;SDS011;2039;50.894;6.888;2023-04-24T15:37:12;71.60;;;6.90;;
4049;SDS011;2039;50.894;6.888;2023-04-24T15:39:37;71.00;;;8.00;;
4049;SDS011;2039;50.894;6.888;2023-04-24T15:42:05;68.57;;;6.67;;
4049;SDS011;2039;50.894;6.888;2023-04-24T15:44:31;72.80;;;7.30;;
4049;SDS011;2039;50.894;6.888;2023-04-24T15:46:58;74.27;;;8.10;;
4049;SDS011;2039;50.894;6.888;2023-04-24T15:49:25;69.93;;;7.40;;
4049;SDS011;2039;50.894;6.888;2023-04-24T15:51:51;69.20;;;8.13;;
4049;SDS011;2039;50.894;6.888;2023-04-24T15:54:17;71.33;;;7.93;;
4049;SDS011;2039;50.894;6.888;2023-04-24T15:56:42;70.90;;;6.70;;
4049;SDS011;2039;50.894;6.888;2023-04-24T15:59:09;71.50;;;7.67;;
4049;SDS011;2039;50.894;6.888;2023-04-24T16:01:35;72.03;;;7.57;;
4049;SDS011;2039;50.894;6.888;2023-04-24T16:04:00;67.80;;;6.83;;
4049;SDS011;2039;50.894;6.888;2023-04-24T16:06:26;73.40;;;8.10;;
4049;SDS011;2039;50.894;6.888;2023-04-24T16:08:52;68.03;;;7.53;;
4049;SDS011;2039;50.894;6.888;2023-04-24T16:11:18;68.40;;;7.80;;
4049;SDS011;2039;50.894;6.888;2023-04-24T16:13:43;71.23;;;8.37;;
4049;SDS011;2039;50.894;6.888;2023-04-24T16:16:09;69.20;;;7.33;;
4049;SDS011;2039;50.894;6.888;2023-04-24T16:18:35;67.87;;;7.00;;
4049;SDS011;2039;50.894;6.888;2023-04-24T16:21:01;72.73;;;7.37;;
4049;SDS011;2039;50.894;6.888;2023-04-24T16:23:31;73.10;;;7.13;;
4049;SDS011;2039;50.894;6.888;2023-04-24T16:25:57;67.90;;;7.17;;
4049;SDS011;2039;50.894;6.888;2023-04-24T16:28:22;71.70;;;7.10;;
4049;SDS011;2039;50.894;6.888;2023-04-24T16:30:48;72.53;;;7.63;;
4049;SDS011;2039;50.894;6.888;2023-04-24T16:33:14;71.50;;;7.07;;
4049;SDS011;2039;50.894;6.888;2023-04-24T16:35:40;69.20;;;7.10;;
4049;SDS011;2039;50.894;6.888;2023-04-24T16:38:10;70.53;;;7.50;;
4049;SDS011;2039;50.894;6.888;2023-04-24T16:40:36;68.60;;;7.30;;
4049;SDS011;2039;50.894;6.888;2023-04-24T16:43:02;69.47;;;7.13;;
4049;SDS011;2039;50.894;6.888;2023-04-24T16:45:28;67.77;;;6.47;;
4049;SDS011;2039;50.894;6.888;2023-04-24T16:47:54;70.00;;;6.53;;
4049;SDS011;2039;50.894;6.888;2023-04-24T16:50:20;67.33;;;7.20;;
4049;SDS011;2039;50.894;6.888;2023-04-24T16:52:45;72.83;;;8.03;;
4049;SDS011;2039;50.894;6.888;2023-04-24T16:55:11;67.93;;;6.80;;
4049;SDS011;2039;50.894;6.888;2023-04-24T16:57:37;71.33;;;7.10;;
4049;SDS011;2039;50.894;6.888;2023-04-24T17:00:03;70.47;;;6.93;;
4049;SDS011;2039;50.894;6.888;2023-04-24T17:02:32;68.93;;;6.43;;
4049;SDS011;2039;50.894;6.888;2023-04-24T17:04:57;71.53;;;6.10;;
4049;SDS011;2039;50.894;6.888;2023-04-24T17:07:23;66.60;;;7.00;;
4049;SDS011;2039;50.894;6.888;2023-04-24T17:09:50;68.35;;;6.43;;
4049;SDS011;2039;50.894;6.888;2023-04-24T17:12:18;69.82;;;6.22;;
4049;SDS011;2039;50.894;6.888;2023-04-24T17:14:44;68.23;;;6.37;;
4049;SDS011;2039;50.894;6.888;2023-04-24T17:17:10;69.47;;;6.57;;
4049;SDS011;2039;50.894;6.888;2023-04-24T17:19:35;65.23;;;6.40;;
4049;SDS011;2039;50.894;6.888;2023-04-24T17:22:04;66.97;;;6.60;;
4049;SDS011;2039;50.894;6.888;2023-04-24T17:24:33;67.95;;;5.63;;
4049;SDS011;2039;50.894;6.888;2023-04-24T17:26:58;68.20;;;6.27;;
4049;SDS011;2039;50.894;6.888;2023-04-24T17:29:24;67.75;;;6.45;;
4049;SDS011;2039;50.894;6.888;2023-04-24T17:31:50;67.47;;;5.63;;
4049;SDS011;2039;50.894;6.888;2023-04-24T17:34:16;69.10;;;6.50;;
4049;SDS011;2039;50.894;6.888;2023-04-24T17:36:41;66.10;;;5.63;;
4049;SDS011;2039;50.894;6.888;2023-04-24T17:39:07;67.05;;;5.25;;
4049;SDS011;2039;50.894;6.888;2023-04-24T17:41:34;66.95;;;5.10;;
4049;SDS011;2039;50.894;6.888;2023-04-24T17:43:59;67.57;;;6.07;;
4049;SDS011;2039;50.894;6.888;2023-04-24T17:46:25;67.17;;;5.93;;
4049;SDS011;2039;50.894;6.888;2023-04-24T17:48:51;66.80;;;5.23;;